Time;durP1;ratioP1;P1;durP2;ratioP2;P2;SDS_P1;SDS_P2;PMS_P1;PMS_P2;Temp;Humidity;BMP_temperature;BMP_pressure;BME280_temperature;BME280_humidity;BME280_pressure;Samples;Min_cycle;Max_cycle;Signal;HPM_P1;HPM_P2
2022/11/14 00:00:51;;;;;;;8.57;5.60;;;10.90;99.90;10.30;101606;;;;598157;236;24012;-81
2022/11/14 00:03:15;;;;;;;8.00;4.93;;;10.90;99.90;10.30;101606;;;;597645;236;24079;-79
2022/11/14 00:05:43;;;;;;;9.00;4.87;;;10.90;99.90;10.30;101605;;;;597217;236;24036;-78
2022/11/14 00:08:17;;;;;;;8.47;5.00;;;10.90;99.90;10.30;101602;;;;597023;236;24029;-79
2022/11/14 00:10:45;;;;;;;7.50;4.37;;;10.90;99.90;10.30;101604;;;;596598;237;24061;-78
2022/11/14 00:13:13;;;;;;;7.10;5.57;;;10.90;99.90;10.30;101596;;;;596405;237;24028;-78
2022/11/14 00:15:44;;;;;;;8.63;5.00;;;10.90;99.90;10.30;101596;;;;596118;237;24098;-77
2022/11/14 00:18:09;;;;;;;8.90;5.90;;;10.90;99.90;10.30;101593;;;;596077;237;23999;-77
2022/11/14 00:20:37;;;;;;;6.67;5.13;;;10.90;99.90;10.20;101596;;;;596389;237;24050;-79
2022/11/14 00:23:05;;;;;;;6.70;4.10;;;10.90;99.90;10.20;101592;;;;596464;237;24003;-78
2022/11/14 00:25:33;;;;;;;9.07;4.73;;;10.80;99.90;10.20;101589;;;;596211;237;23988;-78
2022/11/14 00:28:02;;;;;;;6.70;4.93;;;10.80;99.90;10.20;101582;;;;596095;237;24033;-78
2022/11/14 00:30:31;;;;;;;10.77;4.67;;;10.80;99.90;10.20;101584;;;;596157;237;23998;-80
2022/11/14 00:32:59;;;;;;;8.37;4.47;;;10.80;99.90;10.20;101580;;;;596334;237;24046;-79
2022/11/14 00:35:27;;;;;;;7.93;5.63;;;10.80;99.90;10.20;101585;;;;596714;237;24094;-80
2022/11/14 00:37:55;;;;;;;8.10;5.73;;;10.80;99.90;10.20;101587;;;;596163;237;23994;-79
2022/11/14 00:40:24;;;;;;;7.70;5.10;;;10.80;99.90;10.10;101584;;;;596154;237;23982;-79
2022/11/14 00:42:52;;;;;;;8.57;5.80;;;10.80;99.90;10.20;101583;;;;596617;237;24047;-78
2022/11/14 00:45:20;;;;;;;6.10;5.17;;;10.80;99.90;10.10;101573;;;;595789;237;24016;-79
2022/11/14 00:47:50;;;;;;;7.03;5.07;;;10.70;99.90;10.10;101577;;;;596474;232;23982;-80
2022/11/14 00:50:19;;;;;;;8.23;5.37;;;10.70;99.90;10.10;101578;;;;596488;237;24049;-79
2022/11/14 00:52:47;;;;;;;8.93;5.63;;;10.70;99.90;10.10;101573;;;;596843;237;23992;-79
2022/11/14 00:55:15;;;;;;;9.20;6.10;;;10.70;99.90;10.10;101577;;;;596867;237;24061;-79
2022/11/14 00:57:43;;;;;;;7.57;5.57;;;10.70;99.90;10.10;101577;;;;596772;237;24178;-80
2022/11/14 01:00:14;;;;;;;10.40;6.33;;;10.70;99.90;10.10;101578;;;;596905;237;24000;-80
2022/11/14 01:02:41;;;;;;;10.27;6.30;;;10.70;99.90;10.10;101572;;;;597829;236;24024;-78
2022/11/14 01:05:09;;;;;;;10.50;5.70;;;10.70;99.90;10.10;101570;;;;597835;236;23998;-79
2022/11/14 01:07:41;;;;;;;12.23;5.70;;;10.70;99.90;10.10;101574;;;;597537;236;23994;-79
2022/11/14 01:10:05;;;;;;;7.90;5.00;;;10.70;99.90;10.10;101569;;;;597159;236;23989;-79
2022/11/14 01:12:36;;;;;;;8.07;5.57;;;10.70;99.90;10.10;101566;;;;597633;235;24027;-79
2022/11/14 01:15:01;;;;;;;7.73;5.07;;;10.70;99.90;10.10;101566;;;;597419;236;24001;-78
2022/11/14 01:17:30;;;;;;;7.27;4.67;;;10.70;99.90;10.10;101557;;;;597546;236;24010;-81
2022/11/14 01:19:58;;;;;;;7.13;5.20;;;10.70;99.90;10.10;101558;;;;597569;236;24000;-80
2022/11/14 01:22:26;;;;;;;6.83;5.00;;;10.70;99.90;10.10;101560;;;;597440;237;23967;-83
2022/11/14 01:24:57;;;;;;;5.60;4.43;;;10.70;99.90;10.10;101552;;;;597473;237;23968;-84
2022/11/14 01:27:23;;;;;;;7.57;4.63;;;10.70;99.90;10.00;101545;;;;597403;237;24030;-81
2022/11/14 01:29:51;;;;;;;8.73;5.47;;;10.70;99.90;10.00;101550;;;;597750;233;23995;-81
2022/11/14 01:32:19;;;;;;;6.93;5.00;;;10.70;99.90;10.00;101543;;;;597597;237;24012;-85
2022/11/14 01:34:47;;;;;;;7.00;4.40;;;10.70;99.90;10.00;101540;;;;597312;237;24108;-81
2022/11/14 01:37:16;;;;;;;6.93;4.10;;;10.70;99.90;10.00;101533;;;;597069;237;24017;-79
2022/11/14 01:39:44;;;;;;;7.67;4.13;;;10.60;99.90;10.00;101539;;;;597059;237;23989;-81
2022/11/14 01:42:12;;;;;;;8.63;4.37;;;10.60;99.90;10.00;101536;;;;596906;237;24034;-79
2022/11/14 01:44:53;;;;;;;6.80;3.83;;;10.60;99.90;10.00;101540;;;;596896;237;24012;-79
2022/11/14 01:47:22;;;;;;;5.57;4.23;;;10.60;99.90;10.00;101533;;;;596983;237;23991;-79
2022/11/14 01:49:52;;;;;;;6.83;3.77;;;10.60;99.90;10.00;101528;;;;596962;237;24053;-81
2022/11/14 01:52:28;;;;;;;5.40;4.33;;;10.60;99.90;10.00;101533;;;;597087;237;24006;-78
2022/11/14 01:54:57;;;;;;;9.43;4.13;;;10.60;99.90;10.00;101519;;;;596946;237;24069;-80
2022/11/14 01:57:28;;;;;;;5.13;3.27;;;10.60;99.90;10.00;101522;;;;597239;237;24067;-80
2022/11/14 01:59:57;;;;;;;5.87;3.23;;;10.60;99.90;10.00;101528;;;;597150;237;24033;-80
2022/11/14 02:02:26;;;;;;;3.77;3.47;;;10.60;99.90;10.00;101520;;;;597466;237;24009;-79
2022/11/14 02:05:07;;;;;;;3.47;3.17;;;10.60;99.90;9.90;101509;;;;597555;237;23992;-79
2022/11/14 02:07:35;;;;;;;5.97;4.23;;;10.60;99.90;9.90;101514;;;;606507;237;23996;-82
2022/11/14 02:10:10;;;;;;;5.47;3.27;;;10.60;99.90;9.90;101514;;;;597421;237;25163;-81
2022/11/14 02:12:43;;;;;;;4.07;3.47;;;10.60;99.90;9.90;101515;;;;597441;235;24009;-80
2022/11/14 02:15:12;;;;;;;6.30;3.70;;;10.60;99.90;9.90;101506;;;;597831;236;24026;-79
2022/11/14 02:17:36;;;;;;;4.90;3.00;;;10.60;99.90;9.90;101498;;;;597932;236;24027;-78
2022/11/14 02:20:09;;;;;;;4.07;2.80;;;10.50;99.90;9.90;101498;;;;597962;236;24012;-80
2022/11/14 02:22:41;;;;;;;5.20;3.30;;;10.50;99.90;9.90;101486;;;;597525;236;24024;-79
2022/11/14 02:25:09;;;;;;;5.30;3.20;;;10.50;99.90;9.90;101494;;;;598020;236;23990;-79
2022/11/14 02:27:39;;;;;;;7.07;3.80;;;10.50;99.90;9.90;101490;;;;607205;236;24059;-81
2022/11/14 02:30:12;;;;;;;8.70;3.53;;;10.50;99.90;9.80;101487;;;;597747;236;24015;-81
2022/11/14 02:32:40;;;;;;;3.77;3.40;;;10.50;99.90;9.80;101483;;;;604094;237;24015;-79
2022/11/14 02:35:07;;;;;;;5.03;3.20;;;10.50;99.90;9.80;101488;;;;597842;237;23992;-78
2022/11/14 02:37:35;;;;;;;5.90;3.57;;;10.50;99.90;9.80;101486;;;;597858;237;24064;-83
2022/11/14 02:40:05;;;;;;;2.83;2.53;;;10.40;99.90;9.80;101479;;;;607495;237;23992;-80
2022/11/14 02:42:37;;;;;;;3.80;2.90;;;10.40;99.90;9.80;101476;;;;597523;237;24024;-78
2022/11/14 02:45:01;;;;;;;4.43;3.13;;;10.40;99.90;9.80;101483;;;;597011;237;24051;-80
2022/11/14 02:47:36;;;;;;;2.63;2.43;;;10.40;99.90;9.80;101482;;;;597258;237;24011;-78
2022/11/14 02:50:00;;;;;;;2.77;2.57;;;10.40;99.90;9.80;101486;;;;596670;237;24003;-78
2022/11/14 02:52:28;;;;;;;3.37;2.57;;;10.40;99.90;9.70;101473;;;;597030;237;24056;-78
2022/11/14 02:54:57;;;;;;;3.33;2.87;;;10.40;99.90;9.70;101465;;;;597383;237;24024;-77
2022/11/14 02:57:25;;;;;;;5.63;3.67;;;10.40;99.90;9.70;101461;;;;597197;237;24014;-78
2022/11/14 02:59:53;;;;;;;5.93;3.77;;;10.40;99.90;9.70;101464;;;;597618;237;23997;-82
2022/11/14 03:02:21;;;;;;;4.33;3.17;;;10.30;99.90;9.70;101462;;;;597553;237;24031;-79
2022/11/14 03:04:53;;;;;;;4.17;3.30;;;10.30;99.90;9.70;101464;;;;597528;237;24004;-82
2022/11/14 03:07:18;;;;;;;6.80;4.27;;;10.30;99.90;9.70;101466;;;;597317;237;24008;-81
2022/11/14 03:09:46;;;;;;;5.73;4.23;;;10.30;99.90;9.70;101473;;;;597434;237;24000;-82
2022/11/14 03:12:20;;;;;;;5.50;3.90;;;10.30;99.90;9.60;101458;;;;597433;237;24007;-79
2022/11/14 03:14:46;;;;;;;6.78;4.82;;;10.30;99.90;9.70;101461;;;;591173;237;34855;-79
2022/11/14 03:17:14;;;;;;;6.20;4.30;;;10.30;99.90;9.60;101458;;;;596529;237;24164;-82
2022/11/14 03:19:43;;;;;;;7.20;3.93;;;10.30;99.90;9.60;101456;;;;596581;237;24061;-84
2022/11/14 03:22:11;;;;;;;4.10;3.53;;;10.30;99.90;9.60;101458;;;;596500;237;24031;-77
2022/11/14 03:24:40;;;;;;;4.30;3.33;;;10.30;99.90;9.60;101451;;;;596322;237;24017;-78
2022/11/14 03:27:11;;;;;;;5.30;4.10;;;10.30;99.90;9.60;101453;;;;598147;236;24042;-77
2022/11/14 03:29:39;;;;;;;6.60;4.37;;;10.20;99.90;9.60;101458;;;;597910;236;24001;-79
2022/11/14 03:32:07;;;;;;;6.43;4.60;;;10.20;99.90;9.60;101458;;;;597720;236;24065;-77
2022/11/14 03:34:35;;;;;;;5.93;4.73;;;10.20;99.90;9.50;101440;;;;597438;236;24033;-77
2022/11/14 03:37:03;;;;;;;6.43;4.13;;;10.20;99.90;9.60;101448;;;;597034;236;23985;-76
2022/11/14 03:39:33;;;;;;;4.60;4.07;;;10.20;99.90;9.60;101446;;;;597294;236;24024;-79
2022/11/14 03:42:01;;;;;;;8.33;4.40;;;10.20;99.90;9.50;101440;;;;597216;236;24014;-78
2022/11/14 03:44:34;;;;;;;4.63;3.80;;;10.20;99.90;9.50;101442;;;;597062;237;24031;-78
2022/11/14 03:47:02;;;;;;;5.10;3.97;;;10.20;99.90;9.50;101448;;;;596669;237;24008;-78
2022/11/14 03:49:29;;;;;;;7.03;4.27;;;10.20;99.90;9.50;101440;;;;596803;237;24058;-78
2022/11/14 03:51:57;;;;;;;6.97;4.30;;;10.20;99.90;9.50;101434;;;;596607;237;24046;-78
2022/11/14 03:54:25;;;;;;;7.37;4.97;;;10.20;99.90;9.50;101429;;;;596167;237;24028;-78
2022/11/14 03:56:53;;;;;;;5.33;3.37;;;10.10;99.90;9.50;101434;;;;596419;237;24007;-78
2022/11/14 03:59:21;;;;;;;6.03;5.40;;;10.10;99.90;9.50;101439;;;;596542;237;24003;-78
2022/11/14 04:01:49;;;;;;;8.47;4.40;;;10.10;99.90;9.50;101425;;;;596671;237;24005;-81
2022/11/14 04:04:17;;;;;;;5.67;4.23;;;10.10;99.90;9.50;101433;;;;597069;237;24051;-78
2022/11/14 04:06:45;;;;;;;7.60;4.70;;;10.10;99.90;9.40;101439;;;;596652;237;24032;-79
2022/11/14 04:09:14;;;;;;;8.93;4.90;;;10.10;99.90;9.40;101434;;;;596348;237;23990;-77
2022/11/14 04:11:42;;;;;;;9.43;5.10;;;10.00;99.90;9.40;101427;;;;596028;237;24010;-77
2022/11/14 04:14:10;;;;;;;11.27;5.57;;;10.10;99.90;9.40;101425;;;;595733;237;24029;-77
2022/11/14 04:16:38;;;;;;;7.03;5.97;;;10.00;99.90;9.40;101432;;;;595677;237;24003;-78
2022/11/14 04:19:07;;;;;;;7.20;5.53;;;10.00;99.90;9.30;101420;;;;595977;237;24019;-77
2022/11/14 04:21:35;;;;;;;8.83;5.60;;;10.00;99.90;9.40;101424;;;;595797;237;24006;-78
2022/11/14 04:24:03;;;;;;;7.63;5.50;;;10.00;99.90;9.30;101426;;;;595947;237;23998;-77
2022/11/14 04:26:31;;;;;;;7.47;5.83;;;10.00;99.90;9.30;101428;;;;596117;237;23988;-78
2022/11/14 04:28:59;;;;;;;11.00;5.93;;;10.00;99.90;9.30;101424;;;;596365;237;24001;-78
2022/11/14 04:31:27;;;;;;;8.77;6.07;;;10.00;99.90;9.30;101413;;;;596137;237;24026;-77
2022/11/14 04:33:54;;;;;;;11.20;5.90;;;10.00;99.90;9.30;101418;;;;596141;237;23987;-77
2022/11/14 04:36:22;;;;;;;8.30;5.53;;;9.90;99.90;9.30;101408;;;;596367;237;23997;-80
2022/11/14 04:38:51;;;;;;;9.07;4.97;;;10.00;99.90;9.30;101408;;;;598227;236;24046;-79
2022/11/14 04:41:20;;;;;;;8.13;5.53;;;9.90;99.90;9.30;101408;;;;598040;236;24014;-78
2022/11/14 04:43:48;;;;;;;12.70;6.27;;;9.90;99.90;9.30;101404;;;;597852;236;23992;-83
2022/11/14 04:46:16;;;;;;;10.23;6.00;;;9.90;99.90;9.30;101403;;;;597762;236;24060;-80
2022/11/14 04:48:44;;;;;;;12.60;5.80;;;9.90;99.90;9.20;101392;;;;597423;236;24008;-79
2022/11/14 04:51:14;;;;;;;8.53;5.63;;;9.90;99.90;9.20;101392;;;;596865;236;24007;-79
2022/11/14 04:53:42;;;;;;;9.27;4.87;;;9.90;99.90;9.20;101397;;;;596843;236;24003;-78
2022/11/14 04:56:10;;;;;;;5.07;3.10;;;9.80;99.90;9.20;101389;;;;596976;237;23996;-79
2022/11/14 04:58:38;;;;;;;8.77;6.23;;;9.90;99.90;9.20;101382;;;;596799;237;24024;-78
2022/11/14 05:01:12;;;;;;;9.20;5.30;;;9.80;99.90;9.20;101385;;;;596639;237;24028;-76
2022/11/14 05:03:43;;;;;;;8.03;5.50;;;9.80;99.90;9.10;101389;;;;605768;237;24020;-82
2022/11/14 05:06:08;;;;;;;13.30;6.20;;;9.80;99.90;9.10;101388;;;;595971;237;24001;-79
2022/11/14 05:08:37;;;;;;;8.40;6.07;;;9.70;99.90;9.10;101381;;;;596419;237;24002;-77
2022/11/14 05:11:05;;;;;;;17.97;6.83;;;9.70;99.90;9.10;101375;;;;596734;232;24143;-78
2022/11/14 05:13:33;;;;;;;10.20;6.10;;;9.80;99.90;9.10;101385;;;;595024;237;24015;-77
2022/11/14 05:16:02;;;;;;;11.60;6.40;;;9.70;99.90;9.10;101377;;;;602608;237;24024;-80
2022/11/14 05:18:30;;;;;;;9.93;6.10;;;9.70;99.90;9.10;101387;;;;605953;237;24065;-79
2022/11/14 05:20:59;;;;;;;11.10;7.13;;;9.70;99.90;9.10;101391;;;;596424;237;24055;-77
2022/11/14 05:23:26;;;;;;;10.37;6.13;;;9.70;99.90;9.00;101391;;;;595770;237;23983;-77
2022/11/14 05:26:11;;;;;;;10.33;6.63;;;9.70;99.90;9.00;101403;;;;605234;237;24013;-77
2022/11/14 05:28:40;;;;;;;12.40;7.20;;;9.70;99.90;9.00;101397;;;;595983;237;24007;-77
2022/11/14 05:31:09;;;;;;;12.40;7.53;;;9.70;99.90;9.00;101399;;;;602089;237;24033;-78
2022/11/14 05:33:37;;;;;;;11.70;6.10;;;9.60;99.90;9.00;101386;;;;605469;237;24060;-77
2022/11/14 05:36:09;;;;;;;13.00;7.27;;;9.60;99.90;9.00;101381;;;;596158;237;23999;-79
2022/11/14 05:38:40;;;;;;;8.97;6.37;;;9.60;99.90;8.90;101386;;;;596069;237;24026;-78
2022/11/14 05:41:13;;;;;;;13.47;7.20;;;9.60;99.90;8.90;101393;;;;595699;237;24015;-78
2022/11/14 05:43:44;;;;;;;11.60;6.93;;;9.50;99.90;8.90;101390;;;;596067;237;24013;-78
2022/11/14 05:46:09;;;;;;;12.03;6.63;;;9.50;99.90;8.90;101385;;;;595747;237;24010;-77
2022/11/14 05:48:37;;;;;;;13.37;7.93;;;9.50;99.90;8.80;101386;;;;605934;232;24006;-78
2022/11/14 05:51:05;;;;;;;14.83;7.97;;;9.50;99.90;8.80;101383;;;;597434;236;24006;-78
2022/11/14 05:53:32;;;;;;;15.10;7.20;;;9.50;99.90;8.90;101386;;;;603092;236;24062;-78
2022/11/14 05:56:04;;;;;;;15.53;8.40;;;9.50;99.90;8.80;101380;;;;596914;236;23993;-78
2022/11/14 05:58:28;;;;;;;15.00;9.03;;;9.50;99.90;8.80;101375;;;;596850;236;24065;-79
2022/11/14 06:01:06;;;;;;;16.33;8.77;;;9.50;99.90;8.90;101373;;;;603752;236;24059;-82
2022/11/14 06:03:33;;;;;;;18.10;8.57;;;9.50;99.90;8.80;101372;;;;602205;236;24011;-77
2022/11/14 06:05:58;;;;;;;14.63;9.23;;;9.50;99.90;8.80;101380;;;;605382;236;24073;-78
2022/11/14 06:08:29;;;;;;;15.07;8.23;;;9.40;99.90;8.80;101382;;;;605563;237;24047;-78
2022/11/14 06:10:54;;;;;;;17.30;8.50;;;9.40;99.90;8.80;101380;;;;595722;237;24000;-78
2022/11/14 06:13:25;;;;;;;13.47;8.13;;;9.40;99.90;8.80;101382;;;;596229;237;24007;-79
2022/11/14 06:15:50;;;;;;;15.20;9.27;;;9.50;99.90;8.80;101380;;;;605732;232;24059;-79
2022/11/14 06:18:18;;;;;;;18.17;10.33;;;9.50;99.90;8.80;101375;;;;596505;237;24104;-79
2022/11/14 06:20:46;;;;;;;15.97;8.67;;;9.50;99.90;8.80;101379;;;;596379;237;23981;-80
2022/11/14 06:23:14;;;;;;;20.47;9.83;;;9.50;99.90;8.80;101379;;;;596353;237;23997;-78
2022/11/14 06:25:41;;;;;;;20.83;9.10;;;9.50;99.90;8.80;101382;;;;596169;237;24002;-79
2022/11/14 06:28:11;;;;;;;21.30;10.47;;;9.40;99.90;8.80;101371;;;;596033;237;23968;-78
2022/11/14 06:30:40;;;;;;;19.20;10.50;;;9.40;99.90;8.80;101372;;;;596160;237;24039;-78
2022/11/14 06:33:08;;;;;;;18.13;9.73;;;9.50;99.90;8.80;101380;;;;595881;237;24062;-78
2022/11/14 06:35:36;;;;;;;22.83;11.17;;;9.50;99.90;8.80;101380;;;;595796;237;24058;-77
2022/11/14 06:38:06;;;;;;;17.70;9.60;;;9.50;99.90;8.80;101381;;;;595856;237;23994;-77
2022/11/14 06:40:34;;;;;;;25.40;12.33;;;9.50;99.90;8.80;101393;;;;595713;237;24014;-79
2022/11/14 06:43:02;;;;;;;20.20;11.13;;;9.40;99.90;8.80;101397;;;;595598;237;24042;-77
2022/11/14 06:45:31;;;;;;;16.13;9.87;;;9.40;99.90;8.80;101402;;;;605237;232;24088;-78
2022/11/14 06:47:59;;;;;;;26.13;10.87;;;9.40;99.90;8.80;101396;;;;601631;237;24059;-78
2022/11/14 06:50:27;;;;;;;20.67;10.30;;;9.50;99.90;8.80;101391;;;;595728;237;24012;-77
2022/11/14 06:52:54;;;;;;;25.10;12.53;;;9.50;99.90;8.80;101393;;;;595587;237;24010;-77
2022/11/14 06:55:26;;;;;;;14.97;8.83;;;9.50;99.90;8.80;101393;;;;595795;237;24029;-77
2022/11/14 06:57:56;;;;;;;17.27;10.47;;;9.50;99.90;8.80;101390;;;;595432;237;23993;-77
2022/11/14 07:00:24;;;;;;;21.07;9.70;;;9.50;99.90;8.90;101389;;;;596107;236;24022;-77
2022/11/14 07:02:54;;;;;;;16.63;10.43;;;9.50;99.90;8.80;101387;;;;597167;236;24022;-77
2022/11/14 07:05:23;;;;;;;25.15;15.80;;;9.50;99.90;8.80;101388;;;;592213;236;34775;-78
2022/11/14 07:07:51;;;;;;;19.90;12.80;;;9.50;99.90;8.80;101391;;;;607151;232;24061;-78
2022/11/14 07:10:20;;;;;;;23.67;12.47;;;9.50;99.90;8.80;101399;;;;598137;236;24036;-78
2022/11/14 07:12:48;;;;;;;24.30;12.10;;;9.50;99.90;8.80;101390;;;;598337;236;24011;-77
2022/11/14 07:15:15;;;;;;;19.03;9.83;;;9.50;99.90;8.80;101399;;;;597312;236;23989;-78
2022/11/14 07:17:47;;;;;;;21.93;10.80;;;9.50;99.90;8.80;101397;;;;596366;236;24031;-78
2022/11/14 07:20:12;;;;;;;22.57;11.73;;;9.50;99.90;8.80;101401;;;;596306;237;24010;-77
2022/11/14 07:22:40;;;;;;;23.33;11.83;;;9.50;99.90;8.80;101403;;;;596041;237;24002;-77
2022/11/14 07:25:08;;;;;;;19.07;10.03;;;9.40;99.90;8.80;101398;;;;596450;237;23979;-78
2022/11/14 07:27:36;;;;;;;26.27;11.07;;;9.40;99.90;8.70;101389;;;;594650;237;24043;-77
2022/11/14 07:30:09;;;;;;;17.00;10.33;;;9.40;99.90;8.70;101387;;;;596028;237;24045;-79
2022/11/14 07:32:34;;;;;;;18.40;10.17;;;9.40;99.90;8.70;101386;;;;596233;237;23995;-78
2022/11/14 07:35:02;;;;;;;18.83;8.97;;;9.40;99.90;8.70;101376;;;;596039;237;24080;-78
2022/11/14 07:37:30;;;;;;;18.23;9.67;;;9.40;99.90;8.70;101372;;;;595769;237;24097;-77
2022/11/14 07:39:59;;;;;;;22.33;9.10;;;9.40;99.90;8.70;101374;;;;605092;237;23982;-77
2022/11/14 07:42:29;;;;;;;18.53;9.23;;;9.30;99.90;8.70;101378;;;;595762;237;24002;-77
2022/11/14 07:44:57;;;;;;;14.77;9.70;;;9.40;99.90;8.70;101371;;;;601629;237;23998;-76
2022/11/14 07:47:25;;;;;;;19.03;9.07;;;9.40;99.90;8.70;101369;;;;605038;232;24126;-77
2022/11/14 07:49:54;;;;;;;20.17;9.23;;;9.40;99.90;8.70;101367;;;;595539;237;23996;-78
2022/11/14 07:52:25;;;;;;;19.33;9.17;;;9.40;99.90;8.70;101367;;;;605077;237;25062;-77
2022/11/14 07:54:51;;;;;;;13.87;7.40;;;9.40;99.90;8.80;101372;;;;595705;237;24032;-77
2022/11/14 07:57:19;;;;;;;16.97;9.47;;;9.40;99.90;8.80;101370;;;;595710;237;24049;-77
2022/11/14 07:59:50;;;;;;;16.63;9.00;;;9.40;99.90;8.70;101369;;;;595698;237;24005;-77
2022/11/14 08:02:15;;;;;;;19.17;9.20;;;9.40;99.90;8.70;101368;;;;603590;237;24036;-79
2022/11/14 08:04:44;;;;;;;17.63;9.07;;;9.40;99.90;8.70;101364;;;;596041;237;24028;-78
2022/11/14 08:07:15;;;;;;;18.97;7.60;;;9.40;99.90;8.70;101361;;;;596369;237;23996;-77
2022/11/14 08:09:43;;;;;;;19.30;10.07;;;9.40;99.90;8.70;101359;;;;597316;237;24000;-78
2022/11/14 08:12:12;;;;;;;18.97;9.63;;;9.40;99.90;8.70;101347;;;;606843;235;24134;-77
2022/11/14 08:14:40;;;;;;;19.90;8.57;;;9.40;99.90;8.70;101350;;;;597285;236;27244;-78
2022/11/14 08:17:08;;;;;;;18.43;9.57;;;9.40;99.90;8.70;101347;;;;597131;236;23989;-77
2022/11/14 08:19:36;;;;;;;20.87;10.63;;;9.40;99.90;8.80;101343;;;;596990;236;24009;-78
2022/11/14 08:22:05;;;;;;;16.47;9.87;;;9.50;99.90;8.80;101344;;;;596452;236;24002;-78
2022/11/14 08:24:32;;;;;;;16.63;8.67;;;9.40;99.90;8.80;101334;;;;601535;236;24017;-78
2022/11/14 08:27:00;;;;;;;13.83;8.97;;;9.50;99.90;8.90;101338;;;;606020;236;24003;-78
2022/11/14 08:29:34;;;;;;;25.07;10.33;;;9.50;99.90;8.90;101340;;;;606134;236;24006;-77
2022/11/14 08:31:57;;;;;;;15.97;8.77;;;9.50;99.90;8.90;101332;;;;605159;232;24013;-78
2022/11/14 08:34:25;;;;;;;24.73;10.17;;;9.60;99.90;9.00;101322;;;;602039;237;24007;-78
2022/11/14 08:36:55;;;;;;;20.10;9.87;;;9.60;99.90;9.00;101327;;;;605284;232;24053;-77
2022/11/14 08:39:21;;;;;;;16.63;9.47;;;9.70;99.90;9.00;101320;;;;595932;237;24042;-77
2022/11/14 08:41:49;;;;;;;19.33;9.70;;;9.70;99.90;9.00;101325;;;;596266;232;23990;-78
2022/11/14 08:44:21;;;;;;;22.50;10.43;;;9.70;99.90;9.00;101310;;;;596260;237;24016;-77
2022/11/14 08:46:47;;;;;;;21.23;10.40;;;9.70;99.90;9.00;101308;;;;595976;237;24060;-77
2022/11/14 08:49:16;;;;;;;20.90;9.80;;;9.70;99.90;9.10;101312;;;;595713;237;24028;-79
2022/11/14 08:51:46;;;;;;;32.63;11.43;;;9.70;99.90;9.10;101301;;;;595591;237;23990;-76
2022/11/14 08:54:14;;;;;;;71.40;15.47;;;9.70;99.90;9.10;101303;;;;595767;237;24014;-77
2022/11/14 08:56:42;;;;;;;32.13;12.07;;;9.80;99.90;9.20;101296;;;;595610;237;24037;-77
2022/11/14 08:59:10;;;;;;;19.50;10.73;;;9.80;99.90;9.20;101297;;;;595822;237;24059;-78
2022/11/14 09:01:38;;;;;;;17.43;10.13;;;9.90;99.90;9.20;101304;;;;595656;237;24007;-78
2022/11/14 09:04:09;;;;;;;16.87;10.00;;;9.90;99.90;9.20;101293;;;;595837;237;24010;-78
2022/11/14 09:06:37;;;;;;;19.73;11.60;;;9.90;99.90;9.30;101285;;;;596191;237;24038;-77
2022/11/14 09:09:02;;;;;;;17.50;10.73;;;9.90;99.90;9.30;101277;;;;597474;237;24043;-81
2022/11/14 09:11:30;;;;;;;16.53;9.17;;;10.00;99.90;9.40;101275;;;;597967;237;24029;-80
2022/11/14 09:14:07;;;;;;;21.27;11.17;;;10.00;99.90;9.50;101274;;;;597632;237;24015;-79
2022/11/14 09:16:27;;;;;;;19.43;9.73;;;10.10;99.90;9.50;101277;;;;596216;237;24018;-81
2022/11/14 09:18:55;;;;;;;17.57;10.23;;;10.10;99.90;9.50;101266;;;;597510;237;24024;-83
2022/11/14 09:21:23;;;;;;;16.83;8.93;;;10.10;99.90;9.60;101273;;;;597140;237;24071;-84
2022/11/14 09:23:51;;;;;;;15.07;9.97;;;10.20;99.90;9.50;101280;;;;597106;236;24011;-85
2022/11/14 09:26:19;;;;;;;15.77;8.20;;;10.20;99.90;9.50;101269;;;;597929;236;24085;-84
2022/11/14 09:28:47;;;;;;;10.93;7.73;;;10.20;99.90;9.50;101277;;;;597826;236;24071;-85
2022/11/14 09:31:15;;;;;;;18.60;9.47;;;10.20;99.90;9.50;101271;;;;597486;236;24012;-82
2022/11/14 09:33:42;;;;;;;16.80;8.90;;;10.10;99.90;9.50;101267;;;;597116;236;24101;-85
2022/11/14 09:36:14;;;;;;;10.40;7.40;;;10.20;99.90;9.50;101259;;;;596786;236;24009;-83
2022/11/14 09:38:38;;;;;;;11.60;7.57;;;10.20;99.90;9.50;101262;;;;596300;236;24028;-81
2022/11/14 09:41:22;;;;;;;12.13;6.47;;;10.20;99.90;9.50;101263;;;;597318;236;24074;-79
2022/11/14 09:44:16;;;;;;;8.33;5.73;;;10.10;99.90;9.50;101252;;;;596926;237;24088;-82
2022/11/14 09:46:44;;;;;;;9.07;6.10;;;10.10;99.90;9.40;101260;;;;596845;237;24001;-80
2022/11/14 09:49:24;;;;;;;8.00;5.57;;;10.10;99.90;9.40;101261;;;;596427;237;24077;-81
2022/11/14 09:51:51;;;;;;;11.77;6.17;;;10.10;99.90;9.50;101256;;;;596684;237;24028;-78
2022/11/14 09:54:28;;;;;;;8.70;5.67;;;10.10;99.90;9.50;101262;;;;596061;237;24013;-83
2022/11/14 09:56:56;;;;;;;8.60;5.60;;;10.10;99.90;9.50;101253;;;;596454;237;24001;-81
2022/11/14 09:59:25;;;;;;;11.80;5.77;;;10.20;99.90;9.60;101246;;;;596982;237;24066;-78
2022/11/14 10:02:20;;;;;;;9.33;5.20;;;10.20;99.90;9.60;101242;;;;596178;237;24022;-79
2022/11/14 10:05:06;;;;;;;8.70;6.37;;;10.20;99.90;9.60;101251;;;;593573;237;24006;-79
2022/11/14 10:07:40;;;;;;;8.40;5.67;;;10.20;99.90;9.60;101247;;;;595477;237;23989;-79
2022/11/14 10:10:20;;;;;;;11.80;6.27;;;10.20;99.90;9.60;101242;;;;595669;237;24045;-79
2022/11/14 10:13:02;;;;;;;8.33;6.17;;;10.30;99.90;9.70;101238;;;;595630;237;24051;-79
2022/11/14 10:15:36;;;;;;;9.30;5.70;;;10.40;99.90;9.90;101239;;;;593613;237;24053;-83
2022/11/14 10:18:28;;;;;;;7.23;5.87;;;10.50;99.90;10.00;101225;;;;595443;237;23990;-84
2022/11/14 10:21:01;;;;;;;9.73;6.80;;;10.60;99.90;10.10;101240;;;;581876;237;24025;-78
2022/11/14 10:23:44;;;;;;;11.93;6.27;;;10.70;99.90;9.90;101226;;;;593587;237;23999;-79
2022/11/14 10:26:18;;;;;;;7.90;5.47;;;10.60;99.90;9.90;101226;;;;595112;237;24025;-80
2022/11/14 10:28:58;;;;;;;7.93;5.50;;;10.50;99.90;9.80;101221;;;;593146;237;24014;-80
2022/11/14 10:31:47;;;;;;;9.20;6.00;;;10.50;99.90;9.80;101212;;;;591286;237;24063;-79
2022/11/14 10:34:25;;;;;;;8.43;5.50;;;10.30;99.90;9.70;101213;;;;605218;232;23996;-78
2022/11/14 10:36:55;;;;;;;7.77;5.67;;;10.30;99.90;9.60;101207;;;;597065;236;24000;-84
2022/11/14 10:39:41;;;;;;;9.47;5.80;;;10.30;99.90;9.60;101211;;;;596766;236;24048;-78
2022/11/14 10:42:31;;;;;;;15.83;6.83;;;10.30;99.90;9.70;101206;;;;596795;236;24014;-80
2022/11/14 10:45:23;;;;;;;13.00;7.67;;;10.30;99.90;9.70;101199;;;;596879;236;23976;-81
2022/11/14 10:48:00;;;;;;;12.63;7.47;;;10.40;99.90;9.70;101196;;;;597062;236;24024;-83
2022/11/14 10:50:28;;;;;;;10.47;7.50;;;10.40;99.90;9.70;101192;;;;593256;236;23994;-82
2022/11/14 10:52:56;;;;;;;8.03;6.80;;;10.40;99.90;9.70;101202;;;;595951;237;24025;-81
2022/11/14 10:55:24;;;;;;;12.90;6.97;;;10.40;99.90;9.80;101195;;;;596383;237;24049;-82
2022/11/14 10:57:55;;;;;;;13.10;8.73;;;10.40;99.90;9.80;101193;;;;596291;237;24052;-78
2022/11/14 11:00:24;;;;;;;13.47;8.23;;;10.40;99.90;9.70;101184;;;;595467;237;24011;-77
2022/11/14 11:02:55;;;;;;;13.67;9.07;;;10.40;99.90;9.60;101184;;;;595498;237;24013;-79
2022/11/14 11:05:26;;;;;;;19.17;9.57;;;10.30;99.90;9.50;101176;;;;595827;237;24007;-79
2022/11/14 11:13:32;;;;;;;8.70;6.10;;;10.00;99.90;9.30;101175;;;;595815;237;24079;-78
2022/11/14 11:16:00;;;;;;;11.43;7.77;;;10.00;99.90;9.20;101183;;;;595578;237;24070;-78
2022/11/14 11:18:37;;;;;;;14.97;9.40;;;9.90;99.90;9.20;101175;;;;596525;237;24061;-79
2022/11/14 11:21:12;;;;;;;11.33;7.77;;;9.90;99.90;9.20;101170;;;;605882;236;24014;-82
2022/11/14 11:23:54;;;;;;;14.20;8.27;;;9.80;99.90;9.10;101160;;;;605630;232;24002;-80
2022/11/14 11:26:25;;;;;;;12.50;8.87;;;9.70;99.90;9.00;101173;;;;599678;237;24013;-80
2022/11/14 11:29:10;;;;;;;11.83;8.40;;;9.70;99.90;9.00;101169;;;;595638;237;24014;-81
2022/11/14 11:31:50;;;;;;;13.23;9.70;;;9.70;99.90;9.00;101172;;;;596014;237;24009;-81